sensor_id;sensor_type;location;lat;lon;timestamp;P1;durP1;ratioP1;P2;durP2;ratioP2
25127;SDS011;13107;51.304;6.866;2023-03-01T00:02:05;10.82;;;6.15;;
25127;SDS011;13107;51.304;6.866;2023-03-01T00:06:07;9.20;;;6.12;;
25127;SDS011;13107;51.304;6.866;2023-03-01T00:10:09;8.60;;;5.60;;
25127;SDS011;13107;51.304;6.866;2023-03-01T00:14:12;10.77;;;6.35;;
25127;SDS011;13107;51.304;6.866;2023-03-01T00:18:14;8.80;;;5.93;;
25127;SDS011;13107;51.304;6.866;2023-03-01T00:22:16;9.02;;;5.65;;
25127;SDS011;13107;51.304;6.866;2023-03-01T00:26:18;9.27;;;6.18;;
25127;SDS011;13107;51.304;6.866;2023-03-01T00:30:21;8.52;;;6.25;;
25127;SDS011;13107;51.304;6.866;2023-03-01T00:34:23;9.90;;;5.82;;
25127;SDS011;13107;51.304;6.866;2023-03-01T00:38:25;8.18;;;6.30;;
25127;SDS011;13107;51.304;6.866;2023-03-01T00:42:27;11.40;;;6.65;;
25127;SDS011;13107;51.304;6.866;2023-03-01T00:46:28;10.90;;;6.65;;
25127;SDS011;13107;51.304;6.866;2023-03-01T00:50:32;10.70;;;6.82;;
25127;SDS011;13107;51.304;6.866;2023-03-01T00:54:33;9.40;;;6.20;;
25127;SDS011;13107;51.304;6.866;2023-03-01T00:58:35;9.07;;;6.45;;
25127;SDS011;13107;51.304;6.866;2023-03-01T01:02:37;11.05;;;6.85;;
25127;SDS011;13107;51.304;6.866;2023-03-01T01:06:40;9.88;;;6.82;;
25127;SDS011;13107;51.304;6.866;2023-03-01T01:10:44;11.98;;;6.70;;
25127;SDS011;13107;51.304;6.866;2023-03-01T01:14:47;8.18;;;6.50;;
25127;SDS011;13107;51.304;6.866;2023-03-01T01:18:49;13.68;;;7.55;;
25127;SDS011;13107;51.304;6.866;2023-03-01T01:22:51;10.27;;;6.93;;
25127;SDS011;13107;51.304;6.866;2023-03-01T01:26:53;15.23;;;6.90;;
25127;SDS011;13107;51.304;6.866;2023-03-01T01:30:55;12.45;;;7.62;;
25127;SDS011;13107;51.304;6.866;2023-03-01T01:34:56;12.68;;;6.82;;
25127;SDS011;13107;51.304;6.866;2023-03-01T01:38:58;11.77;;;7.53;;
25127;SDS011;13107;51.304;6.866;2023-03-01T01:43:01;11.85;;;7.12;;
25127;SDS011;13107;51.304;6.866;2023-03-01T01:47:13;8.90;;;6.75;;
25127;SDS011;13107;51.304;6.866;2023-03-01T01:51:19;12.05;;;8.18;;
25127;SDS011;13107;51.304;6.866;2023-03-01T01:55:25;12.68;;;7.12;;
25127;SDS011;13107;51.304;6.866;2023-03-01T01:59:28;11.38;;;6.90;;
25127;SDS011;13107;51.304;6.866;2023-03-01T02:03:33;14.00;;;7.87;;
25127;SDS011;13107;51.304;6.866;2023-03-01T02:07:43;12.73;;;8.10;;
25127;SDS011;13107;51.304;6.866;2023-03-01T02:11:46;16.25;;;7.78;;
25127;SDS011;13107;51.304;6.866;2023-03-01T02:15:49;11.02;;;7.65;;
25127;SDS011;13107;51.304;6.866;2023-03-01T02:20:05;12.50;;;8.35;;
25127;SDS011;13107;51.304;6.866;2023-03-01T02:28:36;19.05;;;9.55;;
25127;SDS011;13107;51.304;6.866;2023-03-01T02:32:40;15.52;;;9.90;;
25127;SDS011;13107;51.304;6.866;2023-03-01T02:36:47;19.05;;;9.63;;
25127;SDS011;13107;51.304;6.866;2023-03-01T02:40:55;15.77;;;9.07;;
25127;SDS011;13107;51.304;6.866;2023-03-01T02:44:58;17.60;;;10.07;;
25127;SDS011;13107;51.304;6.866;2023-03-01T02:49:00;13.13;;;9.45;;
25127;SDS011;13107;51.304;6.866;2023-03-01T02:53:04;13.52;;;9.82;;
25127;SDS011;13107;51.304;6.866;2023-03-01T02:57:16;12.73;;;8.75;;
25127;SDS011;13107;51.304;6.866;2023-03-01T03:01:19;19.00;;;9.18;;
25127;SDS011;13107;51.304;6.866;2023-03-01T03:05:26;13.82;;;9.15;;
25127;SDS011;13107;51.304;6.866;2023-03-01T03:09:29;17.48;;;10.10;;
25127;SDS011;13107;51.304;6.866;2023-03-01T03:13:30;16.08;;;9.45;;
25127;SDS011;13107;51.304;6.866;2023-03-01T03:17:33;12.75;;;9.20;;
25127;SDS011;13107;51.304;6.866;2023-03-01T03:21:36;16.62;;;9.43;;
25127;SDS011;13107;51.304;6.866;2023-03-01T03:25:38;14.25;;;9.30;;
25127;SDS011;13107;51.304;6.866;2023-03-01T03:29:40;14.45;;;8.95;;
25127;SDS011;13107;51.304;6.866;2023-03-01T03:33:41;15.00;;;9.38;;
25127;SDS011;13107;51.304;6.866;2023-03-01T03:37:43;15.20;;;9.10;;
25127;SDS011;13107;51.304;6.866;2023-03-01T03:42:03;17.75;;;9.77;;
25127;SDS011;13107;51.304;6.866;2023-03-01T03:46:05;14.50;;;9.13;;
25127;SDS011;13107;51.304;6.866;2023-03-01T03:50:09;17.73;;;9.48;;
25127;SDS011;13107;51.304;6.866;2023-03-01T03:54:12;14.57;;;9.45;;
25127;SDS011;13107;51.304;6.866;2023-03-01T03:58:14;17.52;;;10.23;;
25127;SDS011;13107;51.304;6.866;2023-03-01T04:02:17;16.25;;;9.90;;
25127;SDS011;13107;51.304;6.866;2023-03-01T04:06:23;14.00;;;9.10;;
25127;SDS011;13107;51.304;6.866;2023-03-01T04:10:25;15.70;;;9.75;;
25127;SDS011;13107;51.304;6.866;2023-03-01T04:14:26;14.35;;;9.15;;
25127;SDS011;13107;51.304;6.866;2023-03-01T04:18:28;15.32;;;10.00;;
25127;SDS011;13107;51.304;6.866;2023-03-01T04:22:30;13.50;;;9.30;;
25127;SDS011;13107;51.304;6.866;2023-03-01T04:26:33;15.20;;;9.70;;
25127;SDS011;13107;51.304;6.866;2023-03-01T04:30:35;20.33;;;9.48;;
25127;SDS011;13107;51.304;6.866;2023-03-01T04:34:37;15.15;;;9.52;;
25127;SDS011;13107;51.304;6.866;2023-03-01T04:38:39;15.70;;;10.15;;
25127;SDS011;13107;51.304;6.866;2023-03-01T04:42:42;15.85;;;10.40;;
25127;SDS011;13107;51.304;6.866;2023-03-01T04:46:44;18.25;;;10.93;;
25127;SDS011;13107;51.304;6.866;2023-03-01T04:50:45;15.23;;;9.60;;
25127;SDS011;13107;51.304;6.866;2023-03-01T04:54:47;15.88;;;9.48;;
25127;SDS011;13107;51.304;6.866;2023-03-01T04:58:49;15.02;;;10.23;;
25127;SDS011;13107;51.304;6.866;2023-03-01T05:02:52;17.67;;;9.63;;
25127;SDS011;13107;51.304;6.866;2023-03-01T05:06:56;14.93;;;9.65;;
25127;SDS011;13107;51.304;6.866;2023-03-01T05:10:59;14.73;;;9.88;;
25127;SDS011;13107;51.304;6.866;2023-03-01T05:15:01;15.95;;;10.23;;
25127;SDS011;13107;51.304;6.866;2023-03-01T05:19:08;15.73;;;10.52;;
25127;SDS011;13107;51.304;6.866;2023-03-01T05:23:16;19.33;;;11.02;;
25127;SDS011;13107;51.304;6.866;2023-03-01T05:27:18;18.02;;;10.68;;
25127;SDS011;13107;51.304;6.866;2023-03-01T05:31:23;16.73;;;11.15;;
25127;SDS011;13107;51.304;6.866;2023-03-01T05:35:24;16.52;;;11.05;;
25127;SDS011;13107;51.304;6.866;2023-03-01T05:39:27;20.20;;;11.63;;
25127;SDS011;13107;51.304;6.866;2023-03-01T05:43:30;16.42;;;10.88;;
25127;SDS011;13107;51.304;6.866;2023-03-01T05:47:35;17.73;;;11.32;;
25127;SDS011;13107;51.304;6.866;2023-03-01T05:51:36;19.00;;;11.12;;
25127;SDS011;13107;51.304;6.866;2023-03-01T05:55:38;18.85;;;10.82;;
25127;SDS011;13107;51.304;6.866;2023-03-01T05:59:40;17.67;;;10.90;;
25127;SDS011;13107;51.304;6.866;2023-03-01T06:03:42;16.37;;;11.10;;
25127;SDS011;13107;51.304;6.866;2023-03-01T06:07:44;14.95;;;10.25;;
25127;SDS011;13107;51.304;6.866;2023-03-01T06:11:45;17.08;;;10.63;;
25127;SDS011;13107;51.304;6.866;2023-03-01T06:15:47;16.10;;;10.30;;
25127;SDS011;13107;51.304;6.866;2023-03-01T06:19:49;18.05;;;11.12;;
25127;SDS011;13107;51.304;6.866;2023-03-01T06:23:51;27.13;;;16.00;;
25127;SDS011;13107;51.304;6.866;2023-03-01T06:27:53;20.73;;;11.52;;
25127;SDS011;13107;51.304;6.866;2023-03-01T06:31:55;18.80;;;10.20;;
25127;SDS011;13107;51.304;6.866;2023-03-01T06:35:57;15.23;;;10.43;;
25127;SDS011;13107;51.304;6.866;2023-03-01T06:39:58;21.60;;;11.32;;
25127;SDS011;13107;51.304;6.866;2023-03-01T06:44:00;18.77;;;10.93;;
25127;SDS011;13107;51.304;6.866;2023-03-01T06:48:06;19.15;;;10.80;;
25127;SDS011;13107;51.304;6.866;2023-03-01T06:52:08;17.42;;;10.10;;
25127;SDS011;13107;51.304;6.866;2023-03-01T06:56:10;17.73;;;10.60;;
25127;SDS011;13107;51.304;6.866;2023-03-01T07:00:12;17.55;;;11.27;;
25127;SDS011;13107;51.304;6.866;2023-03-01T07:04:14;18.30;;;11.15;;
25127;SDS011;13107;51.304;6.866;2023-03-01T07:08:15;16.90;;;10.80;;
25127;SDS011;13107;51.304;6.866;2023-03-01T07:12:17;19.15;;;10.70;;
25127;SDS011;13107;51.304;6.866;2023-03-01T07:16:19;14.85;;;10.73;;
25127;SDS011;13107;51.304;6.866;2023-03-01T07:20:21;15.57;;;10.18;;
25127;SDS011;13107;51.304;6.866;2023-03-01T07:24:25;17.40;;;10.65;;
25127;SDS011;13107;51.304;6.866;2023-03-01T07:28:27;22.00;;;11.15;;
25127;SDS011;13107;51.304;6.866;2023-03-01T07:32:29;18.73;;;10.15;;
25127;SDS011;13107;51.304;6.866;2023-03-01T07:36:31;15.85;;;10.48;;
25127;SDS011;13107;51.304;6.866;2023-03-01T07:40:33;20.08;;;10.90;;
25127;SDS011;13107;51.304;6.866;2023-03-01T07:44:36;17.12;;;10.43;;
25127;SDS011;13107;51.304;6.866;2023-03-01T07:48:37;17.98;;;10.27;;
25127;SDS011;13107;51.304;6.866;2023-03-01T07:52:39;17.52;;;10.32;;
25127;SDS011;13107;51.304;6.866;2023-03-01T07:56:41;14.77;;;10.10;;
25127;SDS011;13107;51.304;6.866;2023-03-01T08:00:42;17.52;;;9.73;;
25127;SDS011;13107;51.304;6.866;2023-03-01T08:04:44;18.50;;;10.45;;
25127;SDS011;13107;51.304;6.866;2023-03-01T08:08:46;16.05;;;10.18;;
25127;SDS011;13107;51.304;6.866;2023-03-01T08:12:50;15.27;;;9.43;;
25127;SDS011;13107;51.304;6.866;2023-03-01T08:16:52;15.20;;;9.35;;
25127;SDS011;13107;51.304;6.866;2023-03-01T08:20:54;18.45;;;9.63;;
25127;SDS011;13107;51.304;6.866;2023-03-01T08:24:56;14.65;;;9.88;;
25127;SDS011;13107;51.304;6.866;2023-03-01T08:28:58;13.85;;;9.38;;
25127;SDS011;13107;51.304;6.866;2023-03-01T08:33:01;13.93;;;9.70;;
25127;SDS011;13107;51.304;6.866;2023-03-01T08:37:02;13.85;;;8.80;;
25127;SDS011;13107;51.304;6.866;2023-03-01T08:41:04;13.65;;;8.88;;
25127;SDS011;13107;51.304;6.866;2023-03-01T08:45:06;13.30;;;8.65;;
25127;SDS011;13107;51.304;6.866;2023-03-01T08:49:12;15.63;;;8.75;;
25127;SDS011;13107;51.304;6.866;2023-03-01T08:53:16;11.93;;;7.90;;
25127;SDS011;13107;51.304;6.866;2023-03-01T08:57:17;12.25;;;8.02;;
25127;SDS011;13107;51.304;6.866;2023-03-01T09:01:19;13.93;;;8.20;;
25127;SDS011;13107;51.304;6.866;2023-03-01T09:05:21;13.07;;;7.68;;
25127;SDS011;13107;51.304;6.866;2023-03-01T09:09:23;13.15;;;8.15;;
25127;SDS011;13107;51.304;6.866;2023-03-01T09:13:25;17.12;;;8.98;;
25127;SDS011;13107;51.304;6.866;2023-03-01T09:21:33;11.20;;;7.45;;
25127;SDS011;13107;51.304;6.866;2023-03-01T09:25:41;11.43;;;7.32;;
25127;SDS011;13107;51.304;6.866;2023-03-01T09:29:42;12.37;;;7.80;;
25127;SDS011;13107;51.304;6.866;2023-03-01T09:33:48;11.68;;;7.97;;
25127;SDS011;13107;51.304;6.866;2023-03-01T09:37:50;10.10;;;6.82;;
25127;SDS011;13107;51.304;6.866;2023-03-01T09:42:02;14.20;;;8.30;;
25127;SDS011;13107;51.304;6.866;2023-03-01T09:46:06;15.18;;;7.75;;
25127;SDS011;13107;51.304;6.866;2023-03-01T09:50:15;12.37;;;7.55;;
25127;SDS011;13107;51.304;6.866;2023-03-01T09:54:20;11.60;;;7.68;;
25127;SDS011;13107;51.304;6.866;2023-03-01T10:02:37;12.07;;;7.62;;
25127;SDS011;13107;51.304;6.866;2023-03-01T10:06:44;12.40;;;8.45;;
25127;SDS011;13107;51.304;6.866;2023-03-01T10:11:03;11.48;;;7.80;;
25127;SDS011;13107;51.304;6.866;2023-03-01T10:23:37;12.50;;;6.90;;
25127;SDS011;13107;51.304;6.866;2023-03-01T10:31:52;11.15;;;7.65;;
25127;SDS011;13107;51.304;6.866;2023-03-01T10:35:55;12.43;;;7.32;;
25127;SDS011;13107;51.304;6.866;2023-03-01T10:40:02;12.20;;;7.57;;
25127;SDS011;13107;51.304;6.866;2023-03-01T10:44:22;10.75;;;6.97;;
25127;SDS011;13107;51.304;6.866;2023-03-01T10:49:19;13.23;;;7.32;;
25127;SDS011;13107;51.304;6.866;2023-03-01T10:57:37;11.93;;;7.68;;
25127;SDS011;13107;51.304;6.866;2023-03-01T11:01:43;12.02;;;7.97;;
25127;SDS011;13107;51.304;6.866;2023-03-01T11:09:58;9.90;;;6.53;;
25127;SDS011;13107;51.304;6.866;2023-03-01T11:14:05;10.70;;;6.32;;
25127;SDS011;13107;51.304;6.866;2023-03-01T11:18:27;16.27;;;6.50;;
25127;SDS011;13107;51.304;6.866;2023-03-01T11:22:49;11.05;;;6.87;;
25127;SDS011;13107;51.304;6.866;2023-03-01T11:26:54;10.07;;;6.22;;
25127;SDS011;13107;51.304;6.866;2023-03-01T11:30:58;10.98;;;6.32;;
25127;SDS011;13107;51.304;6.866;2023-03-01T11:39:24;9.23;;;6.05;;
25127;SDS011;13107;51.304;6.866;2023-03-01T11:48:02;10.02;;;5.72;;
25127;SDS011;13107;51.304;6.866;2023-03-01T11:52:33;9.57;;;6.62;;
25127;SDS011;13107;51.304;6.866;2023-03-01T11:57:04;8.07;;;5.37;;
25127;SDS011;13107;51.304;6.866;2023-03-01T12:01:16;12.50;;;6.50;;
25127;SDS011;13107;51.304;6.866;2023-03-01T12:05:37;8.43;;;5.85;;
25127;SDS011;13107;51.304;6.866;2023-03-01T12:09:55;9.35;;;5.90;;
25127;SDS011;13107;51.304;6.866;2023-03-01T12:22:34;10.30;;;6.40;;
25127;SDS011;13107;51.304;6.866;2023-03-01T12:52:55;7.20;;;5.62;;
25127;SDS011;13107;51.304;6.866;2023-03-01T12:57:18;9.02;;;6.18;;
25127;SDS011;13107;51.304;6.866;2023-03-01T13:05:41;10.35;;;5.97;;
25127;SDS011;13107;51.304;6.866;2023-03-01T13:09:55;10.88;;;5.65;;
25127;SDS011;13107;51.304;6.866;2023-03-01T13:22:31;8.02;;;6.05;;
25127;SDS011;13107;51.304;6.866;2023-03-01T13:27:08;8.43;;;5.75;;
25127;SDS011;13107;51.304;6.866;2023-03-01T13:43:30;9.68;;;5.90;;
25127;SDS011;13107;51.304;6.866;2023-03-01T13:47:43;10.18;;;6.25;;
25127;SDS011;13107;51.304;6.866;2023-03-01T13:51:48;11.73;;;6.62;;
25127;SDS011;13107;51.304;6.866;2023-03-01T13:55:52;9.57;;;6.37;;
25127;SDS011;13107;51.304;6.866;2023-03-01T14:00:00;8.95;;;6.20;;
25127;SDS011;13107;51.304;6.866;2023-03-01T14:04:02;10.00;;;6.20;;
25127;SDS011;13107;51.304;6.866;2023-03-01T14:08:20;8.65;;;6.10;;
25127;SDS011;13107;51.304;6.866;2023-03-01T14:16:44;10.15;;;6.72;;
25127;SDS011;13107;51.304;6.866;2023-03-01T14:20:59;7.93;;;6.43;;
25127;SDS011;13107;51.304;6.866;2023-03-01T14:25:06;13.55;;;6.57;;
25127;SDS011;13107;51.304;6.866;2023-03-01T14:29:38;9.80;;;6.50;;
25127;SDS011;13107;51.304;6.866;2023-03-01T14:33:40;9.30;;;5.60;;
25127;SDS011;13107;51.304;6.866;2023-03-01T14:37:43;8.80;;;6.15;;
25127;SDS011;13107;51.304;6.866;2023-03-01T14:41:44;8.50;;;6.25;;
25127;SDS011;13107;51.304;6.866;2023-03-01T14:45:47;8.07;;;5.85;;
25127;SDS011;13107;51.304;6.866;2023-03-01T14:49:51;9.38;;;6.03;;
25127;SDS011;13107;51.304;6.866;2023-03-01T14:58:46;8.88;;;5.90;;
25127;SDS011;13107;51.304;6.866;2023-03-01T15:02:52;9.32;;;5.53;;
25127;SDS011;13107;51.304;6.866;2023-03-01T15:06:55;10.13;;;5.40;;
25127;SDS011;13107;51.304;6.866;2023-03-01T15:11:17;11.15;;;6.62;;
25127;SDS011;13107;51.304;6.866;2023-03-01T15:15:31;13.57;;;6.50;;
25127;SDS011;13107;51.304;6.866;2023-03-01T15:19:36;8.25;;;5.78;;
25127;SDS011;13107;51.304;6.866;2023-03-01T15:23:37;8.55;;;6.35;;
25127;SDS011;13107;51.304;6.866;2023-03-01T15:27:44;10.20;;;6.53;;
25127;SDS011;13107;51.304;6.866;2023-03-01T15:36:01;8.55;;;4.90;;
25127;SDS011;13107;51.304;6.866;2023-03-01T15:44:49;11.82;;;7.00;;
25127;SDS011;13107;51.304;6.866;2023-03-01T15:53:55;6.78;;;4.25;;
25127;SDS011;13107;51.304;6.866;2023-03-01T15:58:06;6.93;;;4.57;;
25127;SDS011;13107;51.304;6.866;2023-03-01T16:02:13;8.20;;;4.68;;
25127;SDS011;13107;51.304;6.866;2023-03-01T16:06:15;7.70;;;4.45;;
25127;SDS011;13107;51.304;6.866;2023-03-01T16:10:16;9.25;;;4.28;;
25127;SDS011;13107;51.304;6.866;2023-03-01T16:14:18;9.65;;;5.05;;
25127;SDS011;13107;51.304;6.866;2023-03-01T16:18:21;7.12;;;4.78;;
25127;SDS011;13107;51.304;6.866;2023-03-01T16:22:22;7.10;;;4.50;;
25127;SDS011;13107;51.304;6.866;2023-03-01T16:26:26;11.35;;;6.18;;
25127;SDS011;13107;51.304;6.866;2023-03-01T16:30:28;10.43;;;5.60;;
25127;SDS011;13107;51.304;6.866;2023-03-01T16:34:29;7.22;;;4.65;;
25127;SDS011;13107;51.304;6.866;2023-03-01T16:38:31;8.95;;;4.75;;
25127;SDS011;13107;51.304;6.866;2023-03-01T16:42:34;7.85;;;4.70;;
25127;SDS011;13107;51.304;6.866;2023-03-01T16:46:36;8.13;;;4.95;;
25127;SDS011;13107;51.304;6.866;2023-03-01T16:50:38;6.43;;;4.50;;
25127;SDS011;13107;51.304;6.866;2023-03-01T16:54:40;7.57;;;4.65;;
25127;SDS011;13107;51.304;6.866;2023-03-01T16:58:42;8.43;;;4.68;;
25127;SDS011;13107;51.304;6.866;2023-03-01T17:02:44;9.05;;;4.57;;
25127;SDS011;13107;51.304;6.866;2023-03-01T17:06:46;9.60;;;4.68;;
25127;SDS011;13107;51.304;6.866;2023-03-01T17:10:49;7.70;;;4.60;;
25127;SDS011;13107;51.304;6.866;2023-03-01T17:14:51;9.40;;;4.03;;
25127;SDS011;13107;51.304;6.866;2023-03-01T17:18:52;9.20;;;4.37;;
25127;SDS011;13107;51.304;6.866;2023-03-01T17:22:54;7.57;;;4.50;;
25127;SDS011;13107;51.304;6.866;2023-03-01T17:26:56;7.53;;;4.60;;
25127;SDS011;13107;51.304;6.866;2023-03-01T17:30:58;7.72;;;4.93;;
25127;SDS011;13107;51.304;6.866;2023-03-01T17:35:01;7.78;;;4.50;;
25127;SDS011;13107;51.304;6.866;2023-03-01T17:39:03;7.90;;;4.22;;
25127;SDS011;13107;51.304;6.866;2023-03-01T17:43:04;8.82;;;4.65;;
25127;SDS011;13107;51.304;6.866;2023-03-01T17:47:06;8.15;;;4.37;;
25127;SDS011;13107;51.304;6.866;2023-03-01T17:51:09;10.43;;;4.97;;
25127;SDS011;13107;51.304;6.866;2023-03-01T17:55:12;8.05;;;4.57;;
25127;SDS011;13107;51.304;6.866;2023-03-01T17:59:13;8.95;;;4.40;;
25127;SDS011;13107;51.304;6.866;2023-03-01T18:03:17;9.45;;;4.62;;
25127;SDS011;13107;51.304;6.866;2023-03-01T18:07:21;6.97;;;4.60;;
25127;SDS011;13107;51.304;6.866;2023-03-01T18:11:23;7.95;;;4.80;;
25127;SDS011;13107;51.304;6.866;2023-03-01T18:15:25;7.53;;;4.40;;
25127;SDS011;13107;51.304;6.866;2023-03-01T18:19:27;10.38;;;4.87;;
25127;SDS011;13107;51.304;6.866;2023-03-01T18:23:29;8.13;;;4.10;;
25127;SDS011;13107;51.304;6.866;2023-03-01T18:27:33;8.80;;;4.53;;
25127;SDS011;13107;51.304;6.866;2023-03-01T18:31:34;8.50;;;4.05;;
25127;SDS011;13107;51.304;6.866;2023-03-01T18:35:36;8.93;;;4.57;;
25127;SDS011;13107;51.304;6.866;2023-03-01T18:39:39;9.60;;;4.40;;
25127;SDS011;13107;51.304;6.866;2023-03-01T18:43:41;5.75;;;4.22;;
25127;SDS011;13107;51.304;6.866;2023-03-01T18:47:43;8.18;;;4.15;;
25127;SDS011;13107;51.304;6.866;2023-03-01T18:51:45;9.27;;;4.45;;
25127;SDS011;13107;51.304;6.866;2023-03-01T18:55:47;7.78;;;4.40;;
25127;SDS011;13107;51.304;6.866;2023-03-01T18:59:48;7.90;;;4.18;;
25127;SDS011;13107;51.304;6.866;2023-03-01T19:03:50;11.15;;;4.37;;
25127;SDS011;13107;51.304;6.866;2023-03-01T19:07:53;11.77;;;4.45;;
25127;SDS011;13107;51.304;6.866;2023-03-01T19:11:55;8.27;;;4.10;;
25127;SDS011;13107;51.304;6.866;2023-03-01T19:16:09;7.82;;;4.65;;
25127;SDS011;13107;51.304;6.866;2023-03-01T19:20:13;9.32;;;4.87;;
25127;SDS011;13107;51.304;6.866;2023-03-01T19:24:14;7.65;;;4.55;;
25127;SDS011;13107;51.304;6.866;2023-03-01T19:28:16;9.63;;;4.78;;
25127;SDS011;13107;51.304;6.866;2023-03-01T19:32:18;6.80;;;4.40;;
25127;SDS011;13107;51.304;6.866;2023-03-01T19:36:19;11.02;;;4.40;;
25127;SDS011;13107;51.304;6.866;2023-03-01T19:40:22;8.13;;;4.55;;
25127;SDS011;13107;51.304;6.866;2023-03-01T19:44:23;7.00;;;4.53;;
25127;SDS011;13107;51.304;6.866;2023-03-01T19:48:25;9.30;;;4.90;;
25127;SDS011;13107;51.304;6.866;2023-03-01T19:52:27;7.25;;;4.97;;
25127;SDS011;13107;51.304;6.866;2023-03-01T19:56:29;9.35;;;5.03;;
25127;SDS011;13107;51.304;6.866;2023-03-01T20:00:32;9.38;;;4.80;;
25127;SDS011;13107;51.304;6.866;2023-03-01T20:04:34;9.65;;;5.28;;
25127;SDS011;13107;51.304;6.866;2023-03-01T20:08:36;12.00;;;5.37;;
25127;SDS011;13107;51.304;6.866;2023-03-01T20:12:37;9.85;;;4.93;;
25127;SDS011;13107;51.304;6.866;2023-03-01T20:16:39;8.75;;;4.82;;
25127;SDS011;13107;51.304;6.866;2023-03-01T20:20:41;13.15;;;5.15;;
25127;SDS011;13107;51.304;6.866;2023-03-01T20:24:43;10.40;;;5.62;;
25127;SDS011;13107;51.304;6.866;2023-03-01T20:28:45;8.95;;;4.80;;
25127;SDS011;13107;51.304;6.866;2023-03-01T20:32:48;10.07;;;5.05;;
25127;SDS011;13107;51.304;6.866;2023-03-01T20:36:50;13.13;;;5.75;;
25127;SDS011;13107;51.304;6.866;2023-03-01T20:41:02;10.48;;;5.45;;
25127;SDS011;13107;51.304;6.866;2023-03-01T20:45:05;10.27;;;5.22;;
25127;SDS011;13107;51.304;6.866;2023-03-01T20:49:07;8.75;;;5.07;;
25127;SDS011;13107;51.304;6.866;2023-03-01T20:53:10;8.02;;;5.03;;
25127;SDS011;13107;51.304;6.866;2023-03-01T20:57:12;10.48;;;5.32;;
25127;SDS011;13107;51.304;6.866;2023-03-01T21:01:15;10.60;;;5.87;;
25127;SDS011;13107;51.304;6.866;2023-03-01T21:05:18;8.75;;;5.40;;
25127;SDS011;13107;51.304;6.866;2023-03-01T21:09:20;8.02;;;4.87;;
25127;SDS011;13107;51.304;6.866;2023-03-01T21:13:22;10.85;;;5.20;;
25127;SDS011;13107;51.304;6.866;2023-03-01T21:17:24;9.48;;;5.47;;
25127;SDS011;13107;51.304;6.866;2023-03-01T21:21:26;9.68;;;5.12;;
25127;SDS011;13107;51.304;6.866;2023-03-01T21:25:28;11.43;;;5.43;;
25127;SDS011;13107;51.304;6.866;2023-03-01T21:29:38;11.50;;;5.10;;
25127;SDS011;13107;51.304;6.866;2023-03-01T21:37:45;10.38;;;5.20;;
25127;SDS011;13107;51.304;6.866;2023-03-01T21:41:48;10.02;;;4.85;;
25127;SDS011;13107;51.304;6.866;2023-03-01T21:45:50;9.93;;;5.18;;
25127;SDS011;13107;51.304;6.866;2023-03-01T21:49:52;11.00;;;5.30;;
25127;SDS011;13107;51.304;6.866;2023-03-01T21:53:54;9.95;;;5.10;;
25127;SDS011;13107;51.304;6.866;2023-03-01T21:57:56;10.60;;;5.28;;
25127;SDS011;13107;51.304;6.866;2023-03-01T22:01:58;9.93;;;5.03;;
25127;SDS011;13107;51.304;6.866;2023-03-01T22:06:00;11.38;;;5.57;;
25127;SDS011;13107;51.304;6.866;2023-03-01T22:10:02;9.52;;;4.68;;
25127;SDS011;13107;51.304;6.866;2023-03-01T22:14:04;10.85;;;5.30;;
25127;SDS011;13107;51.304;6.866;2023-03-01T22:18:07;11.12;;;4.60;;
25127;SDS011;13107;51.304;6.866;2023-03-01T22:22:10;10.30;;;5.15;;
25127;SDS011;13107;51.304;6.866;2023-03-01T22:30:27;10.35;;;5.20;;
25127;SDS011;13107;51.304;6.866;2023-03-01T22:34:29;10.55;;;4.78;;
25127;SDS011;13107;51.304;6.866;2023-03-01T22:38:30;9.32;;;4.68;;
25127;SDS011;13107;51.304;6.866;2023-03-01T22:42:32;10.35;;;5.20;;
25127;SDS011;13107;51.304;6.866;2023-03-01T22:46:34;9.52;;;5.18;;
25127;SDS011;13107;51.304;6.866;2023-03-01T22:50:36;12.35;;;5.30;;
25127;SDS011;13107;51.304;6.866;2023-03-01T22:54:38;9.23;;;5.43;;
25127;SDS011;13107;51.304;6.866;2023-03-01T22:58:40;10.15;;;5.45;;
25127;SDS011;13107;51.304;6.866;2023-03-01T23:02:42;10.18;;;5.40;;
25127;SDS011;13107;51.304;6.866;2023-03-01T23:06:44;10.25;;;5.68;;
25127;SDS011;13107;51.304;6.866;2023-03-01T23:10:55;10.45;;;5.40;;
25127;SDS011;13107;51.304;6.866;2023-03-01T23:14:57;12.40;;;5.45;;
25127;SDS011;13107;51.304;6.866;2023-03-01T23:18:59;10.52;;;5.62;;
25127;SDS011;13107;51.304;6.866;2023-03-01T23:23:00;9.70;;;5.43;;
25127;SDS011;13107;51.304;6.866;2023-03-01T23:27:02;13.18;;;5.87;;
25127;SDS011;13107;51.304;6.866;2023-03-01T23:31:05;11.60;;;5.68;;
25127;SDS011;13107;51.304;6.866;2023-03-01T23:35:08;9.88;;;5.75;;
25127;SDS011;13107;51.304;6.866;2023-03-01T23:39:11;10.20;;;5.65;;
25127;SDS011;13107;51.304;6.866;2023-03-01T23:43:14;11.02;;;5.45;;
25127;SDS011;13107;51.304;6.866;2023-03-01T23:47:15;10.90;;;5.53;;
25127;SDS011;13107;51.304;6.866;2023-03-01T23:51:17;10.88;;;5.80;;
25127;SDS011;13107;51.304;6.866;2023-03-01T23:55:19;10.98;;;5.72;;
25127;SDS011;13107;51.304;6.866;2023-03-01T23:59:23;10.80;;;5.40;;
